sensor_id;sensor_type;location;lat;lon;timestamp;pressure;altitude;pressure_sealevel;temperature;humidity
40013;BME280;37387;42.672;23.334;2023-04-15T00:04:32;936.4;;;7.2;100.0
40013;BME280;37387;42.672;23.334;2023-04-15T00:08:32;936.7;;;7.3;100.0
40013;BME280;37387;42.672;23.334;2023-04-15T00:11:32;936.7;;;7.4;100.0
40013;BME280;37387;42.672;23.334;2023-04-15T00:13:32;936.7;;;7.5;100.0
40013;BME280;37387;42.672;23.334;2023-04-15T00:15:32;936.6;;;7.6;100.0
40013;BME280;37387;42.672;23.334;2023-04-15T00:18:32;936.6;;;7.7;100.0
40013;BME280;37387;42.672;23.334;2023-04-15T00:21:32;936.6;;;7.8;100.0
40013;BME280;37387;42.672;23.334;2023-04-15T00:28:32;936.6;;;7.7;100.0
40013;BME280;37387;42.672;23.334;2023-04-15T00:29:32;936.6;;;7.6;100.0
40013;BME280;37387;42.672;23.334;2023-04-15T00:30:32;936.6;;;7.5;100.0
40013;BME280;37387;42.672;23.334;2023-04-15T00:31:32;936.6;;;7.4;100.0
40013;BME280;37387;42.672;23.334;2023-04-15T00:34:32;936.6;;;7.3;100.0
40013;BME280;37387;42.672;23.334;2023-04-15T00:36:32;936.6;;;7.4;100.0
40013;BME280;37387;42.672;23.334;2023-04-15T00:41:32;936.7;;;7.5;100.0
40013;BME280;37387;42.672;23.334;2023-04-15T00:42:33;936.7;;;7.6;100.0
40013;BME280;37387;42.672;23.334;2023-04-15T00:45:32;936.7;;;7.7;100.0
40013;BME280;37387;42.672;23.334;2023-04-15T00:49:32;936.7;;;7.8;100.0
40013;BME280;37387;42.672;23.334;2023-04-15T00:50:32;936.7;;;7.7;100.0
40013;BME280;37387;42.672;23.334;2023-04-15T00:51:32;936.7;;;7.6;100.0
40013;BME280;37387;42.672;23.334;2023-04-15T00:52:32;936.7;;;7.5;100.0
40013;BME280;37387;42.672;23.334;2023-04-15T00:56:33;936.7;;;7.4;100.0
40013;BME280;37387;42.672;23.334;2023-04-15T00:58:32;936.7;;;7.3;100.0
40013;BME280;37387;42.672;23.334;2023-04-15T01:08:32;936.7;;;7.4;100.0
40013;BME280;37387;42.672;23.334;2023-04-15T01:09:32;936.7;;;7.5;100.0
40013;BME280;37387;42.672;23.334;2023-04-15T01:10:32;936.7;;;7.4;100.0
40013;BME280;37387;42.672;23.334;2023-04-15T01:12:32;936.7;;;7.3;100.0
40013;BME280;37387;42.672;23.334;2023-04-15T01:13:32;936.7;;;7.2;100.0
40013;BME280;37387;42.672;23.334;2023-04-15T01:16:32;936.8;;;7.3;100.0
40013;BME280;37387;42.672;23.334;2023-04-15T01:18:32;936.8;;;7.2;100.0
40013;BME280;37387;42.672;23.334;2023-04-15T01:19:32;936.8;;;7.3;100.0
40013;BME280;37387;42.672;23.334;2023-04-15T01:20:33;936.7;;;7.2;100.0
40013;BME280;37387;42.672;23.334;2023-04-15T01:22:32;936.7;;;7.3;100.0
40013;BME280;37387;42.672;23.334;2023-04-15T01:26:32;936.6;;;7.2;100.0
40013;BME280;37387;42.672;23.334;2023-04-15T01:29:35;936.5;;;7.1;100.0
40013;BME280;37387;42.672;23.334;2023-04-15T01:32:32;936.6;;;7.2;100.0
40013;BME280;37387;42.672;23.334;2023-04-15T01:34:32;936.6;;;7.1;100.0
40013;BME280;37387;42.672;23.334;2023-04-15T01:35:32;936.5;;;7.2;100.0
40013;BME280;37387;42.672;23.334;2023-04-15T01:40:32;936.5;;;7.1;100.0
40013;BME280;37387;42.672;23.334;2023-04-15T01:45:32;936.6;;;7.0;100.0
40013;BME280;37387;42.672;23.334;2023-04-15T01:49:32;936.7;;;6.9;100.0
40013;BME280;37387;42.672;23.334;2023-04-15T01:50:32;936.7;;;6.8;100.0
40013;BME280;37387;42.672;23.334;2023-04-15T01:57:32;936.8;;;6.9;100.0
40013;BME280;37387;42.672;23.334;2023-04-15T02:03:32;936.8;;;7.0;100.0
40013;BME280;37387;42.672;23.334;2023-04-15T02:06:32;936.7;;;6.8;100.0
40013;BME280;37387;42.672;23.334;2023-04-15T02:08:32;936.8;;;6.9;100.0
40013;BME280;37387;42.672;23.334;2023-04-15T02:09:32;936.8;;;6.8;100.0
40013;BME280;37387;42.672;23.334;2023-04-15T02:16:32;936.7;;;6.7;100.0
40013;BME280;37387;42.672;23.334;2023-04-15T02:20:32;936.7;;;6.6;100.0
40013;BME280;37387;42.672;23.334;2023-04-15T02:27:32;936.6;;;6.5;100.0
40013;BME280;37387;42.672;23.334;2023-04-15T02:28:32;936.6;;;6.6;100.0
40013;BME280;37387;42.672;23.334;2023-04-15T02:29:32;936.5;;;6.5;100.0
40013;BME280;37387;42.672;23.334;2023-04-15T02:30:32;936.5;;;6.6;100.0
40013;BME280;37387;42.672;23.334;2023-04-15T02:31:32;936.6;;;6.5;100.0
40013;BME280;37387;42.672;23.334;2023-04-15T02:32:32;936.6;;;6.4;100.0
40013;BME280;37387;42.672;23.334;2023-04-15T02:35:32;936.6;;;6.3;100.0
40013;BME280;37387;42.672;23.334;2023-04-15T02:39:32;936.6;;;6.4;100.0
40013;BME280;37387;42.672;23.334;2023-04-15T02:41:32;936.5;;;6.3;100.0
40013;BME280;37387;42.672;23.334;2023-04-15T02:47:32;936.6;;;6.2;100.0
40013;BME280;37387;42.672;23.334;2023-04-15T02:50:32;936.6;;;6.1;100.0
40013;BME280;37387;42.672;23.334;2023-04-15T02:51:32;936.6;;;6.2;100.0
40013;BME280;37387;42.672;23.334;2023-04-15T02:59:32;936.7;;;6.1;100.0
40013;BME280;37387;42.672;23.334;2023-04-15T03:02:32;936.7;;;6.0;100.0
40013;BME280;37387;42.672;23.334;2023-04-15T03:05:32;936.7;;;5.9;100.0
40013;BME280;37387;42.672;23.334;2023-04-15T03:07:32;936.7;;;5.8;100.0
40013;BME280;37387;42.672;23.334;2023-04-15T03:08:32;936.7;;;5.7;100.0
40013;BME280;37387;42.672;23.334;2023-04-15T03:09:32;936.7;;;5.5;100.0
40013;BME280;37387;42.672;23.334;2023-04-15T03:15:32;936.8;;;5.4;100.0
40013;BME280;37387;42.672;23.334;2023-04-15T03:16:32;936.8;;;5.3;100.0
40013;BME280;37387;42.672;23.334;2023-04-15T03:17:32;936.8;;;5.2;100.0
40013;BME280;37387;42.672;23.334;2023-04-15T03:21:32;936.9;;;5.0;100.0
40013;BME280;37387;42.672;23.334;2023-04-15T03:22:32;936.9;;;4.9;100.0
40013;BME280;37387;42.672;23.334;2023-04-15T03:24:32;936.9;;;5.0;100.0
40013;BME280;37387;42.672;23.334;2023-04-15T03:26:32;936.8;;;4.9;100.0
40013;BME280;37387;42.672;23.334;2023-04-15T03:27:32;936.8;;;4.8;100.0
40013;BME280;37387;42.672;23.334;2023-04-15T03:34:32;937.0;;;4.7;100.0
40013;BME280;37387;42.672;23.334;2023-04-15T03:43:32;937.1;;;4.6;100.0
40013;BME280;37387;42.672;23.334;2023-04-15T03:44:32;937.1;;;4.7;100.0
40013;BME280;37387;42.672;23.334;2023-04-15T03:46:32;937.1;;;4.8;100.0
40013;BME280;37387;42.672;23.334;2023-04-15T03:51:32;937.3;;;4.9;100.0
40013;BME280;37387;42.672;23.334;2023-04-15T03:52:32;937.3;;;4.8;100.0
40013;BME280;37387;42.672;23.334;2023-04-15T03:53:32;937.3;;;4.9;100.0
40013;BME280;37387;42.672;23.334;2023-04-15T03:56:32;937.4;;;5.0;100.0
40013;BME280;37387;42.672;23.334;2023-04-15T04:01:32;937.3;;;5.1;100.0
40013;BME280;37387;42.672;23.334;2023-04-15T04:07:32;937.3;;;5.2;100.0
40013;BME280;37387;42.672;23.334;2023-04-15T04:09:32;937.3;;;5.3;100.0
40013;BME280;37387;42.672;23.334;2023-04-15T04:11:32;937.4;;;5.4;100.0
40013;BME280;37387;42.672;23.334;2023-04-15T04:13:32;937.4;;;5.5;100.0
40013;BME280;37387;42.672;23.334;2023-04-15T04:15:32;937.4;;;5.6;100.0
40013;BME280;37387;42.672;23.334;2023-04-15T04:17:32;937.4;;;5.7;100.0
40013;BME280;37387;42.672;23.334;2023-04-15T04:18:32;937.4;;;5.6;100.0
40013;BME280;37387;42.672;23.334;2023-04-15T04:20:32;937.4;;;5.5;100.0
40013;BME280;37387;42.672;23.334;2023-04-15T04:21:32;937.4;;;5.4;100.0
40013;BME280;37387;42.672;23.334;2023-04-15T04:22:35;937.5;;;5.5;100.0
40013;BME280;37387;42.672;23.334;2023-04-15T04:23:32;937.5;;;5.9;100.0
40013;BME280;37387;42.672;23.334;2023-04-15T04:24:32;937.5;;;6.6;100.0
40013;BME280;37387;42.672;23.334;2023-04-15T04:25:32;937.5;;;7.2;100.0
40013;BME280;37387;42.672;23.334;2023-04-15T04:26:32;937.6;;;7.8;100.0
40013;BME280;37387;42.672;23.334;2023-04-15T04:27:32;937.6;;;8.5;100.0
40013;BME280;37387;42.672;23.334;2023-04-15T04:28:32;937.5;;;9.1;100.0
40013;BME280;37387;42.672;23.334;2023-04-15T04:29:32;937.6;;;9.6;98.1
40013;BME280;37387;42.672;23.334;2023-04-15T04:30:32;937.6;;;9.9;98.1
40013;BME280;37387;42.672;23.334;2023-04-15T04:31:32;937.6;;;10.7;90.6
40013;BME280;37387;42.672;23.334;2023-04-15T04:32:32;937.6;;;11.4;88.0
40013;BME280;37387;42.672;23.334;2023-04-15T04:33:32;937.6;;;11.5;73.3
40013;BME280;37387;42.672;23.334;2023-04-15T04:34:32;937.6;;;12.4;73.3
40013;BME280;37387;42.672;23.334;2023-04-15T04:35:32;937.6;;;13.2;64.7
40013;BME280;37387;42.672;23.334;2023-04-15T04:36:32;937.6;;;13.4;64.7
40013;BME280;37387;42.672;23.334;2023-04-15T04:38:32;937.6;;;13.7;61.5
40013;BME280;37387;42.672;23.334;2023-04-15T04:39:32;937.7;;;14.0;60.9
40013;BME280;37387;42.672;23.334;2023-04-15T04:40:32;937.7;;;14.1;59.0
40013;BME280;37387;42.672;23.334;2023-04-15T04:41:32;937.7;;;14.0;57.8
40013;BME280;37387;42.672;23.334;2023-04-15T04:42:32;937.7;;;14.1;58.0
40013;BME280;37387;42.672;23.334;2023-04-15T04:43:32;937.7;;;14.3;57.5
40013;BME280;37387;42.672;23.334;2023-04-15T04:44:32;937.7;;;15.1;57.5
40013;BME280;37387;42.672;23.334;2023-04-15T04:45:32;937.7;;;15.8;52.8
40013;BME280;37387;42.672;23.334;2023-04-15T04:46:32;937.7;;;16.5;52.8
40013;BME280;37387;42.672;23.334;2023-04-15T04:47:32;937.8;;;16.3;51.0
40013;BME280;37387;42.672;23.334;2023-04-15T04:49:32;937.8;;;16.5;49.9
40013;BME280;37387;42.672;23.334;2023-04-15T04:50:32;937.9;;;16.7;50.1
40013;BME280;37387;42.672;23.334;2023-04-15T04:51:32;937.9;;;17.0;48.7
40013;BME280;37387;42.672;23.334;2023-04-15T04:52:32;937.9;;;17.2;47.8
40013;BME280;37387;42.672;23.334;2023-04-15T04:53:32;937.9;;;17.0;47.2
40013;BME280;37387;42.672;23.334;2023-04-15T04:55:32;937.9;;;16.4;47.7
40013;BME280;37387;42.672;23.334;2023-04-15T04:56:32;937.9;;;17.0;48.6
40013;BME280;37387;42.672;23.334;2023-04-15T04:58:32;938.0;;;16.5;48.4
40013;BME280;37387;42.672;23.334;2023-04-15T05:00:32;938.0;;;16.7;51.1
40013;BME280;37387;42.672;23.334;2023-04-15T05:01:32;938.0;;;16.2;49.7
40013;BME280;37387;42.672;23.334;2023-04-15T05:02:32;938.0;;;16.8;49.8
40013;BME280;37387;42.672;23.334;2023-04-15T05:03:32;938.0;;;18.1;49.7
40013;BME280;37387;42.672;23.334;2023-04-15T05:04:32;938.0;;;18.5;47.0
40013;BME280;37387;42.672;23.334;2023-04-15T05:05:32;938.0;;;18.4;44.7
40013;BME280;37387;42.672;23.334;2023-04-15T05:06:32;938.0;;;18.0;45.2
40013;BME280;37387;42.672;23.334;2023-04-15T05:07:32;938.0;;;17.0;45.0
40013;BME280;37387;42.672;23.334;2023-04-15T05:08:32;938.1;;;16.3;46.6
40013;BME280;37387;42.672;23.334;2023-04-15T05:09:32;938.1;;;16.5;47.8
40013;BME280;37387;42.672;23.334;2023-04-15T05:10:32;938.1;;;16.4;47.0
40013;BME280;37387;42.672;23.334;2023-04-15T05:11:32;938.1;;;16.6;48.2
40013;BME280;37387;42.672;23.334;2023-04-15T05:12:32;938.1;;;17.5;47.9
40013;BME280;37387;42.672;23.334;2023-04-15T05:13:32;938.1;;;16.6;46.4
40013;BME280;37387;42.672;23.334;2023-04-15T05:14:32;938.2;;;15.9;49.5
40013;BME280;37387;42.672;23.334;2023-04-15T05:15:32;938.2;;;16.0;49.5
40013;BME280;37387;42.672;23.334;2023-04-15T05:16:32;938.4;;;16.7;49.4
40013;BME280;37387;42.672;23.334;2023-04-15T05:17:32;938.4;;;16.6;47.5
40013;BME280;37387;42.672;23.334;2023-04-15T05:18:32;938.4;;;17.0;47.3
40013;BME280;37387;42.672;23.334;2023-04-15T05:19:32;938.4;;;17.8;45.3
40013;BME280;37387;42.672;23.334;2023-04-15T05:20:32;938.4;;;17.2;43.8
40013;BME280;37387;42.672;23.334;2023-04-15T05:21:32;938.4;;;17.4;44.3
40013;BME280;37387;42.672;23.334;2023-04-15T05:22:32;938.3;;;18.3;42.6
40013;BME280;37387;42.672;23.334;2023-04-15T05:23:32;938.3;;;18.6;42.6
40013;BME280;37387;42.672;23.334;2023-04-15T05:24:32;938.3;;;18.2;41.8
40013;BME280;37387;42.672;23.334;2023-04-15T05:25:32;938.3;;;17.8;43.6
40013;BME280;37387;42.672;23.334;2023-04-15T05:26:32;938.3;;;18.3;43.6
40013;BME280;37387;42.672;23.334;2023-04-15T05:27:32;938.3;;;18.5;42.4
40013;BME280;37387;42.672;23.334;2023-04-15T05:28:32;938.3;;;17.5;42.1
40013;BME280;37387;42.672;23.334;2023-04-15T05:29:32;938.2;;;17.6;43.1
40013;BME280;37387;42.672;23.334;2023-04-15T05:30:32;938.3;;;18.0;43.8
40013;BME280;37387;42.672;23.334;2023-04-15T05:31:32;938.3;;;18.9;43.7
40013;BME280;37387;42.672;23.334;2023-04-15T05:32:32;938.3;;;18.7;41.6
40013;BME280;37387;42.672;23.334;2023-04-15T05:33:32;938.2;;;18.5;41.2
40013;BME280;37387;42.672;23.334;2023-04-15T05:34:32;938.2;;;18.0;41.7
40013;BME280;37387;42.672;23.334;2023-04-15T05:35:32;938.2;;;18.6;42.6
40013;BME280;37387;42.672;23.334;2023-04-15T05:36:32;938.2;;;19.0;42.1
40013;BME280;37387;42.672;23.334;2023-04-15T05:37:32;938.2;;;18.8;41.8
40013;BME280;37387;42.672;23.334;2023-04-15T05:38:32;938.3;;;19.7;41.8
40013;BME280;37387;42.672;23.334;2023-04-15T05:39:32;938.2;;;20.3;39.7
40013;BME280;37387;42.672;23.334;2023-04-15T05:40:32;938.2;;;19.1;39.8
40013;BME280;37387;42.672;23.334;2023-04-15T05:41:32;938.2;;;18.8;39.8
40013;BME280;37387;42.672;23.334;2023-04-15T05:42:32;938.2;;;18.5;40.8
40013;BME280;37387;42.672;23.334;2023-04-15T05:43:32;938.2;;;18.7;41.2
40013;BME280;37387;42.672;23.334;2023-04-15T05:44:32;938.2;;;19.2;41.5
40013;BME280;37387;42.672;23.334;2023-04-15T05:45:32;938.3;;;20.0;40.5
40013;BME280;37387;42.672;23.334;2023-04-15T05:46:32;938.3;;;19.0;39.2
40013;BME280;37387;42.672;23.334;2023-04-15T05:47:32;938.2;;;18.7;39.9
40013;BME280;37387;42.672;23.334;2023-04-15T05:48:32;938.3;;;20.1;39.1
40013;BME280;37387;42.672;23.334;2023-04-15T05:49:32;938.3;;;20.8;39.1
40013;BME280;37387;42.672;23.334;2023-04-15T05:50:32;938.3;;;20.5;37.7
40013;BME280;37387;42.672;23.334;2023-04-15T05:51:32;938.4;;;21.0;38.0
40013;BME280;37387;42.672;23.334;2023-04-15T05:53:32;938.4;;;21.1;37.1
40013;BME280;37387;42.672;23.334;2023-04-15T05:54:32;938.4;;;21.3;36.6
40013;BME280;37387;42.672;23.334;2023-04-15T05:56:32;938.4;;;20.6;36.7
40013;BME280;37387;42.672;23.334;2023-04-15T05:57:32;938.4;;;20.8;37.9
40013;BME280;37387;42.672;23.334;2023-04-15T05:58:32;938.4;;;21.3;37.2
40013;BME280;37387;42.672;23.334;2023-04-15T05:59:32;938.3;;;20.3;37.0
40013;BME280;37387;42.672;23.334;2023-04-15T06:00:32;938.3;;;20.7;38.4
40013;BME280;37387;42.672;23.334;2023-04-15T06:01:32;938.4;;;21.7;38.1
40013;BME280;37387;42.672;23.334;2023-04-15T06:03:32;938.5;;;20.4;36.4
40013;BME280;37387;42.672;23.334;2023-04-15T06:04:32;938.5;;;17.5;38.1
40013;BME280;37387;42.672;23.334;2023-04-15T06:05:32;938.4;;;16.3;42.4
40013;BME280;37387;42.672;23.334;2023-04-15T06:06:32;938.4;;;17.7;43.9
40013;BME280;37387;42.672;23.334;2023-04-15T06:07:32;938.4;;;19.1;43.9
40013;BME280;37387;42.672;23.334;2023-04-15T06:08:32;938.5;;;18.7;41.8
40013;BME280;37387;42.672;23.334;2023-04-15T06:09:32;938.5;;;19.9;41.8
40013;BME280;37387;42.672;23.334;2023-04-15T06:10:32;938.5;;;20.9;40.0
40013;BME280;37387;42.672;23.334;2023-04-15T06:11:32;938.6;;;18.4;38.2
40013;BME280;37387;42.672;23.334;2023-04-15T06:12:32;938.5;;;17.3;44.8
40013;BME280;37387;42.672;23.334;2023-04-15T06:13:32;938.5;;;16.5;44.8
40013;BME280;37387;42.672;23.334;2023-04-15T06:14:32;938.5;;;16.8;46.7
40013;BME280;37387;42.672;23.334;2023-04-15T06:15:32;938.5;;;16.0;46.2
40013;BME280;37387;42.672;23.334;2023-04-15T06:16:32;938.4;;;16.9;47.4
40013;BME280;37387;42.672;23.334;2023-04-15T06:18:32;938.6;;;17.2;45.7
40013;BME280;37387;42.672;23.334;2023-04-15T06:19:32;938.6;;;17.9;44.6
40013;BME280;37387;42.672;23.334;2023-04-15T06:20:32;938.6;;;18.8;41.8
40013;BME280;37387;42.672;23.334;2023-04-15T06:21:32;938.6;;;18.4;41.8
40013;BME280;37387;42.672;23.334;2023-04-15T06:22:32;938.5;;;19.1;42.2
40013;BME280;37387;42.672;23.334;2023-04-15T06:23:33;938.6;;;19.9;41.0
40013;BME280;37387;42.672;23.334;2023-04-15T06:24:32;938.6;;;20.5;39.4
40013;BME280;37387;42.672;23.334;2023-04-15T06:26:32;938.6;;;21.1;38.2
40013;BME280;37387;42.672;23.334;2023-04-15T06:28:32;938.7;;;21.4;36.9
40013;BME280;37387;42.672;23.334;2023-04-15T06:29:32;938.7;;;20.9;36.6
40013;BME280;37387;42.672;23.334;2023-04-15T06:30:32;938.7;;;20.6;36.7
40013;BME280;37387;42.672;23.334;2023-04-15T06:31:32;938.7;;;20.2;36.7
40013;BME280;37387;42.672;23.334;2023-04-15T06:32:32;938.7;;;20.7;38.2
40013;BME280;37387;42.672;23.334;2023-04-15T06:33:32;938.8;;;20.4;37.3
40013;BME280;37387;42.672;23.334;2023-04-15T06:34:32;938.8;;;21.0;37.2
40013;BME280;37387;42.672;23.334;2023-04-15T06:35:32;938.8;;;20.1;37.2
40013;BME280;37387;42.672;23.334;2023-04-15T06:36:32;938.7;;;20.6;37.9
40013;BME280;37387;42.672;23.334;2023-04-15T06:37:32;938.7;;;20.5;37.8
40013;BME280;37387;42.672;23.334;2023-04-15T06:38:32;938.8;;;20.0;37.8
40013;BME280;37387;42.672;23.334;2023-04-15T06:39:32;938.8;;;20.2;38.3
40013;BME280;37387;42.672;23.334;2023-04-15T06:40:32;938.8;;;20.1;38.7
40013;BME280;37387;42.672;23.334;2023-04-15T06:41:32;938.8;;;19.4;39.2
40013;BME280;37387;42.672;23.334;2023-04-15T06:42:32;938.8;;;19.6;39.2
40013;BME280;37387;42.672;23.334;2023-04-15T06:43:32;938.8;;;20.6;38.0
40013;BME280;37387;42.672;23.334;2023-04-15T06:44:32;938.8;;;21.0;38.0
40013;BME280;37387;42.672;23.334;2023-04-15T06:45:32;938.8;;;20.3;37.3
40013;BME280;37387;42.672;23.334;2023-04-15T06:46:32;938.8;;;21.1;37.8
40013;BME280;37387;42.672;23.334;2023-04-15T06:47:32;938.9;;;21.9;37.6
40013;BME280;37387;42.672;23.334;2023-04-15T06:48:32;938.9;;;22.1;36.0
40013;BME280;37387;42.672;23.334;2023-04-15T06:49:32;938.9;;;22.4;35.1
40013;BME280;37387;42.672;23.334;2023-04-15T06:50:32;938.9;;;20.9;34.7
40013;BME280;37387;42.672;23.334;2023-04-15T06:51:33;938.9;;;20.6;37.5
40013;BME280;37387;42.672;23.334;2023-04-15T06:52:32;938.9;;;20.7;37.5
40013;BME280;37387;42.672;23.334;2023-04-15T06:53:32;938.9;;;21.0;37.3
40013;BME280;37387;42.672;23.334;2023-04-15T06:54:32;939.0;;;21.3;36.7
40013;BME280;37387;42.672;23.334;2023-04-15T06:55:32;939.0;;;21.5;36.7
40013;BME280;37387;42.672;23.334;2023-04-15T06:56:32;939.0;;;22.1;36.1
40013;BME280;37387;42.672;23.334;2023-04-15T06:58:32;938.9;;;21.4;34.8
40013;BME280;37387;42.672;23.334;2023-04-15T06:59:32;938.9;;;21.1;36.3
40013;BME280;37387;42.672;23.334;2023-04-15T07:00:32;938.9;;;20.6;36.3
40013;BME280;37387;42.672;23.334;2023-04-15T07:01:32;938.8;;;20.0;36.8
40013;BME280;37387;42.672;23.334;2023-04-15T07:03:32;938.8;;;19.9;38.2
40013;BME280;37387;42.672;23.334;2023-04-15T07:04:32;938.8;;;20.0;38.2
40013;BME280;37387;42.672;23.334;2023-04-15T07:05:32;938.8;;;20.5;37.9
40013;BME280;37387;42.672;23.334;2023-04-15T07:06:32;938.9;;;20.4;37.5
40013;BME280;37387;42.672;23.334;2023-04-15T07:07:32;938.9;;;21.4;37.5
40013;BME280;37387;42.672;23.334;2023-04-15T07:08:32;938.9;;;21.6;36.4
40013;BME280;37387;42.672;23.334;2023-04-15T07:09:32;938.9;;;22.7;35.7
40013;BME280;37387;42.672;23.334;2023-04-15T07:10:32;938.9;;;23.0;34.5
40013;BME280;37387;42.672;23.334;2023-04-15T07:12:32;938.9;;;23.1;33.8
40013;BME280;37387;42.672;23.334;2023-04-15T07:13:32;938.9;;;22.9;33.7
40013;BME280;37387;42.672;23.334;2023-04-15T07:14:32;938.9;;;23.0;33.8
40013;BME280;37387;42.672;23.334;2023-04-15T07:15:32;938.8;;;22.8;33.4
40013;BME280;37387;42.672;23.334;2023-04-15T07:16:32;938.8;;;22.3;33.6
40013;BME280;37387;42.672;23.334;2023-04-15T07:17:32;938.9;;;22.1;34.0
40013;BME280;37387;42.672;23.334;2023-04-15T07:18:32;938.8;;;22.4;34.9
40013;BME280;37387;42.672;23.334;2023-04-15T07:19:32;938.9;;;22.3;34.4
40013;BME280;37387;42.672;23.334;2023-04-15T07:20:32;938.9;;;21.5;34.4
40013;BME280;37387;42.672;23.334;2023-04-15T07:21:32;938.9;;;21.0;35.8
40013;BME280;37387;42.672;23.334;2023-04-15T07:22:32;938.8;;;20.7;36.8
40013;BME280;37387;42.672;23.334;2023-04-15T07:23:32;938.9;;;20.9;36.8
40013;BME280;37387;42.672;23.334;2023-04-15T07:24:32;938.9;;;20.5;36.7
40013;BME280;37387;42.672;23.334;2023-04-15T07:25:32;938.8;;;20.4;37.7
40013;BME280;37387;42.672;23.334;2023-04-15T07:26:32;938.8;;;21.5;37.7
40013;BME280;37387;42.672;23.334;2023-04-15T07:27:32;938.9;;;21.8;35.9
40013;BME280;37387;42.672;23.334;2023-04-15T07:28:32;938.9;;;22.0;35.3
40013;BME280;37387;42.672;23.334;2023-04-15T07:29:32;939.0;;;21.9;35.3
40013;BME280;37387;42.672;23.334;2023-04-15T07:30:32;938.9;;;20.6;36.5
40013;BME280;37387;42.672;23.334;2023-04-15T07:31:32;938.9;;;19.6;36.5
40013;BME280;37387;42.672;23.334;2023-04-15T07:32:32;938.9;;;20.0;38.4
40013;BME280;37387;42.672;23.334;2023-04-15T07:34:32;938.9;;;20.8;37.1
40013;BME280;37387;42.672;23.334;2023-04-15T07:35:32;938.9;;;20.9;37.1
40013;BME280;37387;42.672;23.334;2023-04-15T07:36:32;939.0;;;21.1;36.3
40013;BME280;37387;42.672;23.334;2023-04-15T07:37:32;939.0;;;20.3;36.3
40013;BME280;37387;42.672;23.334;2023-04-15T07:38:32;938.9;;;20.5;37.4
40013;BME280;37387;42.672;23.334;2023-04-15T07:39:32;938.9;;;21.2;37.5
40013;BME280;37387;42.672;23.334;2023-04-15T07:40:32;938.9;;;20.9;36.0
40013;BME280;37387;42.672;23.334;2023-04-15T07:41:32;938.9;;;20.7;36.3
40013;BME280;37387;42.672;23.334;2023-04-15T07:42:33;938.8;;;20.3;36.8
40013;BME280;37387;42.672;23.334;2023-04-15T07:43:32;938.9;;;20.0;37.7
40013;BME280;37387;42.672;23.334;2023-04-15T07:44:32;938.9;;;20.2;37.7
40013;BME280;37387;42.672;23.334;2023-04-15T07:45:32;938.9;;;19.9;37.8
40013;BME280;37387;42.672;23.334;2023-04-15T07:46:32;938.9;;;19.8;38.4
40013;BME280;37387;42.672;23.334;2023-04-15T07:47:32;938.9;;;20.3;38.5
40013;BME280;37387;42.672;23.334;2023-04-15T07:48:32;938.8;;;20.4;37.3
40013;BME280;37387;42.672;23.334;2023-04-15T07:49:32;938.8;;;21.0;37.0
40013;BME280;37387;42.672;23.334;2023-04-15T07:50:32;938.9;;;21.3;36.6
40013;BME280;37387;42.672;23.334;2023-04-15T07:51:32;939.0;;;21.4;36.2
40013;BME280;37387;42.672;23.334;2023-04-15T07:52:32;939.0;;;21.6;36.0
40013;BME280;37387;42.672;23.334;2023-04-15T07:53:32;939.0;;;21.5;35.4
40013;BME280;37387;42.672;23.334;2023-04-15T07:54:32;939.0;;;21.9;35.9
40013;BME280;37387;42.672;23.334;2023-04-15T07:55:32;939.0;;;21.2;34.9
40013;BME280;37387;42.672;23.334;2023-04-15T07:56:32;939.0;;;20.1;35.6
40013;BME280;37387;42.672;23.334;2023-04-15T07:57:32;939.0;;;20.0;37.8
40013;BME280;37387;42.672;23.334;2023-04-15T07:58:32;939.0;;;19.7;37.8
40013;BME280;37387;42.672;23.334;2023-04-15T07:59:32;939.0;;;19.8;38.0
40013;BME280;37387;42.672;23.334;2023-04-15T08:00:32;939.0;;;19.9;38.3
40013;BME280;37387;42.672;23.334;2023-04-15T08:01:32;939.1;;;20.2;37.9
40013;BME280;37387;42.672;23.334;2023-04-15T08:02:32;939.1;;;20.8;37.5
40013;BME280;37387;42.672;23.334;2023-04-15T08:03:32;939.1;;;21.4;36.8
40013;BME280;37387;42.672;23.334;2023-04-15T08:04:32;939.1;;;21.5;35.8
40013;BME280;37387;42.672;23.334;2023-04-15T08:05:32;939.1;;;21.6;35.1
40013;BME280;37387;42.672;23.334;2023-04-15T08:06:32;939.0;;;22.1;35.0
40013;BME280;37387;42.672;23.334;2023-04-15T08:07:32;939.1;;;22.4;34.3
40013;BME280;37387;42.672;23.334;2023-04-15T08:08:32;939.1;;;22.2;33.8
40013;BME280;37387;42.672;23.334;2023-04-15T08:09:32;939.1;;;22.4;33.8
40013;BME280;37387;42.672;23.334;2023-04-15T08:10:32;939.1;;;21.9;33.4
40013;BME280;37387;42.672;23.334;2023-04-15T08:11:32;939.0;;;22.8;33.6
40013;BME280;37387;42.672;23.334;2023-04-15T08:12:32;939.0;;;23.3;32.1
40013;BME280;37387;42.672;23.334;2023-04-15T08:13:32;939.1;;;23.0;32.1
40013;BME280;37387;42.672;23.334;2023-04-15T08:14:32;939.0;;;23.5;32.0
40013;BME280;37387;42.672;23.334;2023-04-15T08:15:32;939.0;;;23.4;31.6
40013;BME280;37387;42.672;23.334;2023-04-15T08:16:32;939.0;;;22.9;31.3
40013;BME280;37387;42.672;23.334;2023-04-15T08:17:32;939.0;;;23.6;31.8
40013;BME280;37387;42.672;23.334;2023-04-15T08:18:32;939.1;;;23.7;31.1
40013;BME280;37387;42.672;23.334;2023-04-15T08:19:32;939.0;;;22.7;30.4
40013;BME280;37387;42.672;23.334;2023-04-15T08:20:32;939.0;;;22.3;31.4
40013;BME280;37387;42.672;23.334;2023-04-15T08:21:32;939.0;;;22.9;32.2
40013;BME280;37387;42.672;23.334;2023-04-15T08:22:32;939.0;;;23.5;31.8
40013;BME280;37387;42.672;23.334;2023-04-15T08:23:32;939.0;;;22.4;30.9
40013;BME280;37387;42.672;23.334;2023-04-15T08:24:32;939.0;;;22.5;31.5
40013;BME280;37387;42.672;23.334;2023-04-15T08:25:32;939.0;;;23.2;31.3
40013;BME280;37387;42.672;23.334;2023-04-15T08:26:32;939.0;;;20.7;33.7
40013;BME280;37387;42.672;23.334;2023-04-15T08:27:32;939.0;;;21.0;33.7
40013;BME280;37387;42.672;23.334;2023-04-15T08:28:32;939.0;;;21.3;33.1
40013;BME280;37387;42.672;23.334;2023-04-15T08:29:32;939.1;;;22.0;32.3
40013;BME280;37387;42.672;23.334;2023-04-15T08:30:32;939.0;;;21.9;32.0
40013;BME280;37387;42.672;23.334;2023-04-15T08:31:32;939.0;;;22.6;32.0
40013;BME280;37387;42.672;23.334;2023-04-15T08:33:32;939.0;;;22.1;31.7
40013;BME280;37387;42.672;23.334;2023-04-15T08:34:32;939.0;;;21.6;32.0
40013;BME280;37387;42.672;23.334;2023-04-15T08:35:32;939.0;;;21.9;33.3
40013;BME280;37387;42.672;23.334;2023-04-15T08:36:32;939.0;;;22.3;34.0
40013;BME280;37387;42.672;23.334;2023-04-15T08:37:32;938.9;;;20.9;34.0
40013;BME280;37387;42.672;23.334;2023-04-15T08:38:32;938.9;;;20.4;35.8
40013;BME280;37387;42.672;23.334;2023-04-15T08:39:32;938.8;;;20.6;36.4
40013;BME280;37387;42.672;23.334;2023-04-15T08:40:34;938.9;;;21.6;36.2
40013;BME280;37387;42.672;23.334;2023-04-15T08:41:33;938.9;;;22.2;35.3